createdAt,value
2018-12-18T00:02:06.400Z,101829.06
2018-12-18T00:04:33.818Z,101827.36
2018-12-18T00:07:01.303Z,101826.51
2018-12-18T00:09:28.723Z,101824.35
2018-12-18T00:11:59.260Z,101827.89
2018-12-18T00:14:25.595Z,101817.45
2018-12-18T00:16:53.046Z,101828.38
2018-12-18T00:19:20.496Z,101819.32
2018-12-18T00:21:47.929Z,101823.23
2018-12-18T00:24:15.374Z,101827.58
2018-12-18T00:26:42.970Z,101827.58
2018-12-18T00:29:10.386Z,101824.13
2018-12-18T00:31:37.841Z,101826.31
2018-12-18T00:34:05.289Z,101827.25
2018-12-18T00:36:32.724Z,101830.22
2018-12-18T00:39:00.149Z,101833.67
2018-12-18T00:41:27.591Z,101825.02
2018-12-18T00:43:55.081Z,101813.80
2018-12-18T00:46:22.540Z,101815.14
2018-12-18T00:48:50.132Z,101818.15
2018-12-18T00:51:17.540Z,101809.00
2018-12-18T00:53:44.979Z,101804.25
2018-12-18T00:56:12.392Z,101800.76
2018-12-18T00:58:39.842Z,101794.17
2018-12-18T01:01:07.253Z,101799.73
2018-12-18T01:03:34.714Z,101797.46
2018-12-18T01:06:03.005Z,101805.58
2018-12-18T01:08:30.444Z,101796.80
2018-12-18T01:10:57.856Z,101804.15
2018-12-18T01:13:25.391Z,101803.61
2018-12-18T01:15:52.899Z,101796.63
2018-12-18T01:18:20.346Z,101796.98
2018-12-18T01:20:47.764Z,101793.48
2018-12-18T01:23:15.216Z,101800.38
2018-12-18T01:25:42.751Z,101794.64
2018-12-18T01:28:10.192Z,101797.16
2018-12-18T01:30:38.358Z,101801.01
2018-12-18T01:33:05.801Z,101793.16
2018-12-18T01:35:33.219Z,101799.66
2018-12-18T01:38:00.658Z,101793.92
2018-12-18T01:40:29.267Z,101798.66
2018-12-18T01:42:56.978Z,101796.47
2018-12-18T01:45:24.504Z,101797.77
2018-12-18T01:47:51.986Z,101798.12
2018-12-18T01:50:19.418Z,101806.72
2018-12-18T01:52:46.843Z,101803.62
2018-12-18T01:55:14.299Z,101808.32
2018-12-18T01:57:41.731Z,101808.27
2018-12-18T02:00:09.161Z,101816.47
2018-12-18T02:02:36.588Z,101816.02
2018-12-18T02:05:04.686Z,101820.27
2018-12-18T02:07:32.106Z,101812.86
2018-12-18T02:09:59.540Z,101815.36
2018-12-18T02:12:26.991Z,101815.77
2018-12-18T02:14:54.705Z,101821.40
2018-12-18T02:17:22.136Z,101820.45
2018-12-18T02:19:49.583Z,101819.10
2018-12-18T02:22:17.001Z,101821.75
2018-12-18T02:24:44.426Z,101817.45
2018-12-18T02:27:11.882Z,101815.77
2018-12-18T02:29:39.326Z,101817.06
2018-12-18T02:32:06.830Z,101811.81
2018-12-18T02:34:34.269Z,101816.11
2018-12-18T02:37:01.712Z,101821.30
2018-12-18T02:39:29.324Z,101828.63
2018-12-18T02:41:57.622Z,101815.61
2018-12-18T02:44:25.042Z,101804.31
2018-12-18T02:46:52.689Z,101796.48
2018-12-18T02:49:20.103Z,101798.22
2018-12-18T02:51:47.521Z,101797.73
2018-12-18T02:54:15.079Z,101795.53
2018-12-18T02:56:42.531Z,101794.23
2018-12-18T02:59:09.983Z,101789.05
2018-12-18T03:01:37.427Z,101789.94
2018-12-18T03:04:04.866Z,101792.53
2018-12-18T03:06:32.281Z,101783.84
2018-12-18T03:08:59.897Z,101778.61
2018-12-18T03:11:27.319Z,101773.81
2018-12-18T03:13:55.156Z,101772.91
2018-12-18T03:16:22.618Z,101779.31
2018-12-18T03:18:50.073Z,101776.70
2018-12-18T03:21:17.499Z,101774.45
2018-12-18T03:23:44.969Z,101774.41
2018-12-18T03:26:12.450Z,101778.70
2018-12-18T03:28:39.909Z,101778.69
2018-12-18T03:31:07.322Z,101773.90
2018-12-18T03:33:34.762Z,101777.80
2018-12-18T03:36:02.186Z,101779.05
2018-12-18T03:38:29.626Z,101772.09
2018-12-18T03:40:57.697Z,101774.14
2018-12-18T03:43:25.131Z,101774.13
2018-12-18T03:45:53.130Z,101777.13
2018-12-18T03:48:20.792Z,101763.25
2018-12-18T03:50:48.231Z,101758.02
2018-12-18T03:53:15.813Z,101759.30
2018-12-18T03:55:43.259Z,101759.26
2018-12-18T03:58:10.659Z,101751.87
2018-12-18T04:00:38.106Z,101756.12
2018-12-18T04:03:05.521Z,101756.06
2018-12-18T04:05:33.520Z,101752.13
2018-12-18T04:08:00.961Z,101747.78
2018-12-18T04:10:28.402Z,101740.80
2018-12-18T04:12:55.886Z,101740.34
2018-12-18T04:15:23.342Z,101742.44
2018-12-18T04:17:50.816Z,101748.91
2018-12-18T04:20:18.259Z,101738.03
2018-12-18T04:22:45.695Z,101736.73
2018-12-18T04:25:13.141Z,101743.61
2018-12-18T04:27:40.561Z,101744.45
2018-12-18T04:30:08.064Z,101743.95
2018-12-18T04:32:35.503Z,101740.45
2018-12-18T04:35:03.134Z,101741.70
2018-12-18T04:37:30.565Z,101739.09
2018-12-18T04:39:58.115Z,101746.83
2018-12-18T04:42:25.540Z,101744.58
2018-12-18T04:44:52.972Z,101739.73
2018-12-18T04:47:20.399Z,101742.72
2018-12-18T04:49:47.826Z,101733.63
2018-12-18T04:52:15.248Z,101736.56
2018-12-18T04:54:42.678Z,101730.88
2018-12-18T04:57:10.125Z,101730.38
2018-12-18T04:59:37.545Z,101723.88
2018-12-18T05:02:04.984Z,101735.95
2018-12-18T05:04:32.394Z,101732.00
2018-12-18T05:07:00.023Z,101738.88
2018-12-18T05:09:27.679Z,101737.57
2018-12-18T05:11:55.126Z,101735.82
2018-12-18T05:14:22.566Z,101738.77
2018-12-18T05:16:49.999Z,101742.59
2018-12-18T05:19:17.427Z,101745.57
2018-12-18T05:21:44.863Z,101752.00
2018-12-18T05:24:12.285Z,101753.23
2018-12-18T05:26:39.834Z,101756.66
2018-12-18T05:29:07.275Z,101752.32
2018-12-18T05:31:34.856Z,101760.50
2018-12-18T05:34:02.286Z,101759.59
2018-12-18T05:36:29.755Z,101753.09
2018-12-18T05:38:57.156Z,101750.00
2018-12-18T05:41:24.571Z,101750.78
2018-12-18T05:43:52.033Z,101745.99
2018-12-18T05:46:19.473Z,101743.33
2018-12-18T05:48:46.908Z,101750.20
2018-12-18T05:51:15.443Z,101745.82
2018-12-18T05:53:42.956Z,101745.02
2018-12-18T05:56:10.374Z,101744.12
2018-12-18T05:58:37.844Z,101743.33
2018-12-18T06:01:05.292Z,101737.77
2018-12-18T06:03:32.791Z,101742.04
2018-12-18T06:06:00.218Z,101741.53
2018-12-18T06:08:27.650Z,101737.14
2018-12-18T06:10:55.091Z,101737.07
2018-12-18T06:13:22.522Z,101746.09
2018-12-18T06:15:49.966Z,101747.77
2018-12-18T06:18:17.401Z,101744.27
2018-12-18T06:20:44.842Z,101746.45
2018-12-18T06:23:12.298Z,101746.00
2018-12-18T06:25:39.735Z,101749.88
2018-12-18T06:28:07.158Z,101751.98
2018-12-18T06:30:34.615Z,101752.82
2018-12-18T06:33:02.041Z,101751.96
2018-12-18T06:35:29.489Z,101748.94
2018-12-18T06:37:56.910Z,101748.08
2018-12-18T06:40:24.349Z,101748.94
2018-12-18T06:42:53.265Z,101745.95
2018-12-18T06:45:20.914Z,101748.09
2018-12-18T06:47:48.327Z,101743.81
2018-12-18T06:50:15.763Z,101745.16
2018-12-18T06:52:43.209Z,101733.91
2018-12-18T06:55:10.666Z,101730.47
2018-12-18T06:57:38.061Z,101723.55
2018-12-18T07:00:09.271Z,101722.69
2018-12-18T07:02:36.677Z,101715.31
2018-12-18T07:05:04.849Z,101710.09
2018-12-18T07:07:32.307Z,101701.45
2018-12-18T07:09:59.750Z,101700.56
2018-12-18T07:12:27.173Z,101700.09
2018-12-18T07:14:56.646Z,101694.86
2018-12-18T07:17:24.112Z,101693.52
2018-12-18T07:19:51.573Z,101693.45
2018-12-18T07:22:19.039Z,101689.44
2018-12-18T07:24:46.461Z,101690.28
2018-12-18T07:27:13.903Z,101688.08
2018-12-18T07:29:41.327Z,101697.14
2018-12-18T07:32:08.777Z,101688.08
2018-12-18T07:34:36.192Z,101692.36
2018-12-18T07:37:03.653Z,101691.91
2018-12-18T07:39:31.067Z,101681.08
2018-12-18T07:41:58.503Z,101682.66
2018-12-18T07:44:25.955Z,101686.98
2018-12-18T07:46:53.371Z,101689.18
2018-12-18T07:49:20.805Z,101690.09
2018-12-18T07:51:48.252Z,101690.50
2018-12-18T07:54:15.678Z,101690.47
2018-12-18T07:56:43.273Z,101697.02
2018-12-18T07:59:10.709Z,101702.27
2018-12-18T08:01:38.163Z,101704.86
2018-12-18T08:04:05.826Z,101698.82
2018-12-18T08:06:33.253Z,101697.14
2018-12-18T08:09:00.701Z,101697.65
2018-12-18T08:11:28.109Z,101693.78
2018-12-18T08:13:55.573Z,101689.50
2018-12-18T08:16:22.994Z,101682.64
2018-12-18T08:18:50.437Z,101684.39
2018-12-18T08:21:17.962Z,101674.03
2018-12-18T08:23:45.418Z,101674.55
2018-12-18T08:26:12.843Z,101667.23
2018-12-18T08:28:40.288Z,101661.65
2018-12-18T08:31:08.144Z,101665.53
2018-12-18T08:33:35.562Z,101658.28
2018-12-18T08:36:03.022Z,101647.52
2018-12-18T08:38:31.018Z,101647.52
2018-12-18T08:40:58.464Z,101647.08
2018-12-18T08:43:25.883Z,101642.41
2018-12-18T08:45:53.330Z,101646.80
2018-12-18T08:48:20.793Z,101652.88
2018-12-18T08:50:48.315Z,101648.61
2018-12-18T08:53:15.751Z,101649.52
2018-12-18T08:55:43.591Z,101642.64
2018-12-18T08:58:11.038Z,101644.43
2018-12-18T09:00:38.478Z,101640.16
2018-12-18T09:03:06.038Z,101644.50
2018-12-18T09:05:33.485Z,101647.59
2018-12-18T09:08:00.922Z,101644.17
2018-12-18T09:10:28.357Z,101642.53
2018-12-18T09:12:55.790Z,101643.48
2018-12-18T09:15:28.804Z,101635.77
2018-12-18T09:17:56.327Z,101633.24
2018-12-18T09:20:24.496Z,101629.85
2018-12-18T09:22:52.055Z,101629.55
2018-12-18T09:25:19.504Z,101630.47
2018-12-18T09:27:46.945Z,101631.42
2018-12-18T09:30:14.371Z,101632.83
2018-12-18T09:32:41.805Z,101630.78
2018-12-18T09:35:09.365Z,101620.11
2018-12-18T09:37:36.851Z,101620.27
2018-12-18T09:40:05.825Z,101613.48
2018-12-18T09:45:33.499Z,101612.44
2018-12-18T09:48:00.937Z,101617.28
2018-12-18T09:50:28.365Z,101610.98
2018-12-18T09:52:55.822Z,101618.55
2018-12-18T09:55:23.256Z,101615.64
2018-12-18T09:57:56.453Z,101613.19
2018-12-18T10:00:24.056Z,101608.17
2018-12-18T10:02:51.608Z,101592.38
2018-12-18T10:05:19.090Z,101586.02
2018-12-18T10:07:46.556Z,101586.17
2018-12-18T10:12:54.716Z,101571.36
2018-12-18T10:15:23.616Z,101569.35
2018-12-18T10:17:51.068Z,101564.27
2018-12-18T10:20:18.511Z,101562.63
2018-12-18T10:22:46.049Z,101566.27
2018-12-18T10:25:13.622Z,101557.30
2018-12-18T10:27:41.127Z,101546.14
2018-12-18T10:30:10.895Z,101542.34
2018-12-18T10:32:38.467Z,101537.23
2018-12-18T10:35:06.717Z,101519.53
2018-12-18T10:37:34.179Z,101522.22
2018-12-18T10:40:01.600Z,101512.28
2018-12-18T10:42:29.019Z,101508.86
2018-12-18T10:44:56.476Z,101513.64
2018-12-18T10:47:23.902Z,101512.78
2018-12-18T10:49:51.363Z,101504.98
2018-12-18T10:52:18.804Z,101497.64
2018-12-18T10:54:46.264Z,101493.33
2018-12-18T10:57:13.878Z,101485.97
2018-12-18T10:59:41.359Z,101471.24
2018-12-18T11:02:09.162Z,101460.86
2018-12-18T11:04:36.693Z,101452.66
2018-12-18T11:07:05.672Z,101448.83
2018-12-18T11:09:33.349Z,101444.97
2018-12-18T11:12:00.787Z,101440.64
2018-12-18T11:14:28.280Z,101444.17
2018-12-18T11:16:55.715Z,101439.94
2018-12-18T11:19:23.127Z,101434.33
2018-12-18T11:21:50.572Z,101430.02
2018-12-18T11:24:18.007Z,101431.37
2018-12-18T11:26:45.442Z,101427.91
2018-12-18T11:29:12.856Z,101426.28
2018-12-18T11:31:40.278Z,101417.19
2018-12-18T11:34:07.722Z,101414.64
2018-12-18T11:36:35.275Z,101414.22
2018-12-18T11:39:04.366Z,101418.62
2018-12-18T11:41:31.832Z,101424.29
2018-12-18T11:43:59.287Z,101416.96
2018-12-18T11:46:26.736Z,101422.19
2018-12-18T11:48:54.181Z,101416.62
2018-12-18T11:51:21.621Z,101416.69
2018-12-18T11:53:49.052Z,101410.67
2018-12-18T11:56:16.646Z,101408.55
2018-12-18T11:58:44.282Z,101405.12
2018-12-18T12:01:11.792Z,101388.19
2018-12-18T12:03:39.233Z,101398.22
2018-12-18T12:06:12.666Z,101394.30
2018-12-18T12:08:40.118Z,101394.72
2018-12-18T12:11:07.595Z,101393.46
2018-12-18T12:13:35.061Z,101383.02
2018-12-18T12:16:02.495Z,101377.77
2018-12-18T12:18:30.088Z,101373.40
2018-12-18T12:20:57.518Z,101371.22
2018-12-18T12:23:24.946Z,101366.00
2018-12-18T12:25:52.405Z,101363.84
2018-12-18T12:28:20.293Z,101365.55
2018-12-18T12:30:47.726Z,101365.52
2018-12-18T12:33:15.171Z,101354.55
2018-12-18T12:35:42.628Z,101354.90
2018-12-18T12:38:10.127Z,101347.43
2018-12-18T12:40:37.583Z,101345.59
2018-12-18T12:43:05.026Z,101340.34
2018-12-18T12:45:32.864Z,101332.45
2018-12-18T12:48:02.696Z,101331.50
2018-12-18T12:50:30.329Z,101324.08
2018-12-18T12:52:57.743Z,101323.28
2018-12-18T12:55:25.185Z,101309.37
2018-12-18T12:57:52.624Z,101311.13
2018-12-18T13:00:20.202Z,101313.38
2018-12-18T13:02:47.647Z,101311.66
2018-12-18T13:05:15.279Z,101309.52
2018-12-18T13:07:42.719Z,101300.36
2018-12-18T13:10:10.171Z,101301.69
2018-12-18T13:12:37.623Z,101294.73
2018-12-18T13:15:05.435Z,101289.49
2018-12-18T13:17:32.891Z,101287.78
2018-12-18T13:20:00.317Z,101281.24
2018-12-18T13:22:27.836Z,101280.36
2018-12-18T13:24:55.290Z,101271.64
2018-12-18T13:27:22.937Z,101268.59
2018-12-18T13:29:50.535Z,101256.84
2018-12-18T13:32:17.999Z,101260.37
2018-12-18T13:34:45.427Z,101256.54
2018-12-18T13:37:13.049Z,101256.12
2018-12-18T13:39:40.607Z,101249.64
2018-12-18T13:42:08.059Z,101247.94
2018-12-18T13:44:35.511Z,101240.99
2018-12-18T13:47:02.946Z,101234.50
2018-12-18T13:49:30.349Z,101235.41
2018-12-18T13:51:57.815Z,101235.00
2018-12-18T13:54:25.433Z,101240.66
2018-12-18T13:56:52.892Z,101234.60
2018-12-18T13:59:20.303Z,101237.66
2018-12-18T14:01:47.747Z,101233.30
2018-12-18T14:04:15.192Z,101237.21
2018-12-18T14:06:42.650Z,101233.33
2018-12-18T14:09:10.221Z,101237.26
2018-12-18T14:11:37.648Z,101225.06
2018-12-18T14:14:05.104Z,101228.55
2018-12-18T14:16:32.535Z,101220.73
2018-12-18T14:18:59.999Z,101213.34
2018-12-18T14:21:27.423Z,101205.97
2018-12-18T14:23:54.966Z,101209.87
2018-12-18T14:26:22.389Z,101199.44
2018-12-18T14:28:53.726Z,101204.64
2018-12-18T14:31:21.126Z,101216.36
2018-12-18T14:33:48.581Z,101207.25
2018-12-18T14:36:16.016Z,101208.54
2018-12-18T14:38:43.518Z,101203.75
2018-12-18T14:41:10.950Z,101201.54
2018-12-18T14:43:38.380Z,101206.75
2018-12-18T14:46:05.886Z,101201.50
2018-12-18T14:48:33.404Z,101198.91
2018-12-18T14:51:00.841Z,101195.81
2018-12-18T14:53:28.390Z,101206.63
2018-12-18T14:55:55.839Z,101204.84
2018-12-18T14:58:23.249Z,101199.18
2018-12-18T15:00:50.707Z,101198.30
2018-12-18T15:03:18.127Z,101177.88
2018-12-18T15:05:45.561Z,101173.50
2018-12-18T15:08:12.994Z,101159.61
2018-12-18T15:10:40.572Z,101158.70
2018-12-18T15:13:07.998Z,101147.40
2018-12-18T15:15:35.444Z,101138.70
2018-12-18T15:18:02.879Z,101137.83
2018-12-18T15:20:30.471Z,101127.82
2018-12-18T15:22:57.882Z,101140.36
2018-12-18T15:25:25.311Z,101133.38
2018-12-18T15:27:52.752Z,101135.98
2018-12-18T15:30:25.736Z,101135.05
2018-12-18T15:32:49.670Z,101141.09
2018-12-18T15:35:17.299Z,101143.70
2018-12-18T15:37:44.888Z,101154.94
2018-12-18T15:40:12.496Z,101153.62
2018-12-18T15:42:39.981Z,101154.49
2018-12-18T15:45:07.462Z,101149.28
2018-12-18T15:47:34.923Z,101146.22
2018-12-18T15:50:02.369Z,101147.92
2018-12-18T15:52:30.236Z,101146.61
2018-12-18T15:54:57.670Z,101151.80
2018-12-18T15:57:25.138Z,101153.52
2018-12-18T15:59:52.574Z,101156.56
2018-12-18T16:02:24.219Z,101152.59
2018-12-18T16:04:49.487Z,101144.78
2018-12-18T16:07:17.021Z,101140.86
2018-12-18T16:09:44.567Z,101138.69
2018-12-18T16:12:12.020Z,101146.47
2018-12-18T16:14:39.576Z,101140.34
2018-12-18T16:17:07.078Z,101142.94
2018-12-18T16:19:34.808Z,101130.81
2018-12-18T16:22:02.270Z,101121.70
2018-12-18T16:24:30.174Z,101128.64
2018-12-18T16:26:57.623Z,101122.13
2018-12-18T16:29:25.075Z,101114.75
2018-12-18T16:31:52.531Z,101108.23
2018-12-18T16:34:19.990Z,101103.02
2018-12-18T16:36:47.513Z,101102.14
2018-12-18T16:39:15.265Z,101099.50
2018-12-18T16:41:42.845Z,101093.02
2018-12-18T16:44:10.309Z,101089.53
2018-12-18T16:46:37.750Z,101077.80
2018-12-18T16:49:05.262Z,101079.11
2018-12-18T16:51:33.120Z,101072.61
2018-12-18T16:54:00.731Z,101064.33
2018-12-18T16:56:28.159Z,101069.96
2018-12-18T16:58:56.080Z,101058.23
2018-12-18T17:01:23.485Z,101056.92
2018-12-18T17:03:50.941Z,101064.28
2018-12-18T17:06:18.371Z,101059.95
2018-12-18T17:08:45.843Z,101055.61
2018-12-18T17:11:13.475Z,101049.98
2018-12-18T17:13:40.885Z,101045.62
2018-12-18T17:16:08.335Z,101039.53
2018-12-18T17:18:35.773Z,101046.02
2018-12-18T17:21:03.456Z,101040.02
2018-12-18T17:23:30.887Z,101033.50
2018-12-18T17:25:58.346Z,101026.11
2018-12-18T17:28:25.780Z,101017.91
2018-12-18T17:30:53.215Z,101001.00
2018-12-18T17:33:20.748Z,101002.30
2018-12-18T17:35:48.462Z,101004.02
2018-12-18T17:38:16.074Z,101008.80
2018-12-18T17:40:43.768Z,100998.39
2018-12-18T17:43:11.194Z,100987.14
2018-12-18T17:45:38.708Z,100982.40
2018-12-18T17:48:06.203Z,100975.02
2018-12-18T17:50:33.662Z,100981.10
2018-12-18T17:53:01.085Z,100960.33
2018-12-18T17:55:33.687Z,100962.91
2018-12-18T17:58:01.138Z,100951.20
2018-12-18T18:00:28.632Z,100948.16
2018-12-18T18:02:56.264Z,100944.67
2018-12-18T18:05:23.851Z,100932.58
2018-12-18T18:07:51.294Z,100931.70
2018-12-18T18:10:18.760Z,100924.77
2018-12-18T18:12:46.224Z,100916.94
2018-12-18T18:15:14.019Z,100915.66
2018-12-18T18:17:41.484Z,100916.95
2018-12-18T18:20:09.067Z,100916.50
2018-12-18T18:22:37.037Z,100906.98
2018-12-18T18:25:05.136Z,100900.06
2018-12-18T18:27:32.584Z,100893.56
2018-12-18T18:30:00.046Z,100894.86
2018-12-18T18:32:27.480Z,100892.69
2018-12-18T18:34:54.910Z,100892.23
2018-12-18T18:37:22.372Z,100895.69
2018-12-18T18:39:49.832Z,100884.44
2018-12-18T18:42:17.268Z,100889.62
2018-12-18T18:44:44.831Z,100877.92
2018-12-18T18:47:12.278Z,100884.86
2018-12-18T18:49:39.842Z,100874.92
2018-12-18T18:52:07.287Z,100871.88
2018-12-18T18:54:34.780Z,100867.98
2018-12-18T18:57:02.233Z,100865.83
2018-12-18T18:59:29.715Z,100867.99
2018-12-18T19:01:57.348Z,100871.46
2018-12-18T19:04:24.816Z,100871.50
2018-12-18T19:06:52.229Z,100871.10
2018-12-18T19:09:19.891Z,100864.19
2018-12-18T19:11:48.260Z,100860.28
2018-12-18T19:14:15.731Z,100861.56
2018-12-18T19:16:43.191Z,100862.88
2018-12-18T19:19:10.714Z,100850.34
2018-12-18T19:21:38.233Z,100843.87
2018-12-18T19:24:05.813Z,100838.23
2018-12-18T19:26:33.254Z,100831.73
2018-12-18T19:29:00.694Z,100833.05
2018-12-18T19:31:28.343Z,100845.60
2018-12-18T19:33:55.796Z,100833.05
2018-12-18T19:36:23.529Z,100834.81
2018-12-18T19:38:51.051Z,100831.77
2018-12-18T19:41:18.536Z,100834.36
2018-12-18T19:43:46.015Z,100820.52
2018-12-18T19:46:13.481Z,100815.33
2018-12-18T19:48:40.921Z,100827.88
2018-12-18T19:51:08.384Z,100826.58
